EWG78FF LFLL-EDDL
Flight info
| Callsign | EWG78FF |
|---|---|
| Flight time | 1h 3m |
| Altitude | 32000 |
| Route | RISOR T45 VENAT T330 GILIR DCT PENDU DCT IXILU DCT EPL DCT ROUSY DCT DIK N853 ARCKY T853 NVO T857 BIKMU BIKMU1A |
| Aircraft | A319/M-SDE2E3FGIJ1RWXY/EB1 |
Departure
| Time | 2026-05-06 11:55 |
|---|---|
| Airport | Lyon Saint-Exupéry Airport (LFLL) |
Arrival
| Time | 2026-05-06 12:58 |
|---|---|
| Airport | Düsseldorf Airport (EDDL) |
| Time | Latitude | Longitude | Altitude | Speed | Heading |
|---|---|---|---|---|---|
| 2026-05-06 11:38 | 45.71625 | 5.07903 | 797 ft | 0 kts | 278° |
| 2026-05-06 11:44 | 45.71625 | 5.07905 | 797 ft | 2 kts | 278° |
| 2026-05-06 11:45 | 45.71620 | 5.07940 | 797 ft | 4 kts | 290° |
| 2026-05-06 11:45 | 45.71608 | 5.07975 | 797 ft | 4 kts | 305° |
| 2026-05-06 11:45 | 45.71591 | 5.08003 | 798 ft | 4 kts | 323° |
| 2026-05-06 11:45 | 45.71568 | 5.08021 | 800 ft | 4 kts | 348° |
| 2026-05-06 11:46 | 45.71547 | 5.08022 | 800 ft | 1 kts | 15° |
| 2026-05-06 11:49 | 45.71564 | 5.08029 | 800 ft | 5 kts | 15° |
| 2026-05-06 11:49 | 45.71614 | 5.08048 | 800 ft | 10 kts | 14° |
| 2026-05-06 11:50 | 45.71694 | 5.08106 | 799 ft | 15 kts | 61° |
| 2026-05-06 11:50 | 45.71682 | 5.08258 | 801 ft | 16 kts | 95° |
| 2026-05-06 11:50 | 45.71686 | 5.08436 | 801 ft | 19 kts | 83° |
| 2026-05-06 11:50 | 45.71747 | 5.08480 | 802 ft | 11 kts | 359° |
| 2026-05-06 11:51 | 45.71833 | 5.08477 | 802 ft | 13 kts | 357° |
| 2026-05-06 11:51 | 45.71936 | 5.08465 | 802 ft | 16 kts | 354° |
| 2026-05-06 11:51 | 45.72058 | 5.08449 | 803 ft | 18 kts | 356° |
| 2026-05-06 11:51 | 45.72192 | 5.08435 | 801 ft | 21 kts | 354° |
| 2026-05-06 11:52 | 45.72351 | 5.08410 | 798 ft | 25 kts | 353° |
| 2026-05-06 11:52 | 45.72532 | 5.08390 | 796 ft | 25 kts | 355° |
| 2026-05-06 11:52 | 45.72716 | 5.08368 | 791 ft | 28 kts | 355° |
| 2026-05-06 11:52 | 45.72894 | 5.08346 | 790 ft | 20 kts | 355° |
| 2026-05-06 11:53 | 45.73046 | 5.08326 | 787 ft | 24 kts | 355° |
| 2026-05-06 11:53 | 45.73219 | 5.08305 | 785 ft | 26 kts | 354° |
| 2026-05-06 11:53 | 45.73404 | 5.08285 | 780 ft | 25 kts | 356° |
| 2026-05-06 11:53 | 45.73581 | 5.08268 | 780 ft | 24 kts | 356° |
| 2026-05-06 11:54 | 45.73728 | 5.08318 | 777 ft | 22 kts | 71° |
| 2026-05-06 11:54 | 45.73708 | 5.08516 | 777 ft | 13 kts | 104° |
| 2026-05-06 11:54 | 45.73682 | 5.08659 | 777 ft | 16 kts | 105° |
| 2026-05-06 11:54 | 45.73572 | 5.08730 | 780 ft | 35 kts | 175° |
| 2026-05-06 11:55 | 45.73135 | 5.08782 | 790 ft | 91 kts | 175° |
| 2026-05-06 11:55 | 45.72318 | 5.08881 | 800 ft | 143 kts | 175° |
| 2026-05-06 11:55 | 45.71229 | 5.09021 | 1164 ft | 158 kts | 174° |
| 2026-05-06 11:55 | 45.70153 | 5.09193 | 1904 ft | 154 kts | 172° |
| 2026-05-06 11:56 | 45.69089 | 5.09371 | 2599 ft | 153 kts | 174° |
| 2026-05-06 11:56 | 45.67990 | 5.09508 | 3055 ft | 169 kts | 176° |
| 2026-05-06 11:56 | 45.66733 | 5.09636 | 3507 ft | 193 kts | 177° |
| 2026-05-06 11:56 | 45.65309 | 5.09791 | 4047 ft | 217 kts | 176° |
| 2026-05-06 11:57 | 45.63732 | 5.09963 | 4608 ft | 239 kts | 176° |
| 2026-05-06 11:57 | 45.62072 | 5.10733 | 5162 ft | 267 kts | 146° |
| 2026-05-06 11:57 | 45.60871 | 5.12792 | 6044 ft | 278 kts | 113° |
| 2026-05-06 11:57 | 45.60440 | 5.15504 | 7019 ft | 284 kts | 99° |
| 2026-05-06 11:58 | 45.59996 | 5.18254 | 7991 ft | 286 kts | 107° |
| 2026-05-06 11:58 | 45.59412 | 5.20996 | 8946 ft | 290 kts | 109° |
| 2026-05-06 11:58 | 45.58789 | 5.23709 | 9842 ft | 294 kts | 110° |
| 2026-05-06 11:58 | 45.58137 | 5.26584 | 10388 ft | 311 kts | 110° |
| 2026-05-06 11:59 | 45.57475 | 5.29596 | 10771 ft | 331 kts | 109° |
| 2026-05-06 11:59 | 45.56791 | 5.32829 | 11510 ft | 340 kts | 108° |
| 2026-05-06 11:59 | 45.56128 | 5.36040 | 12344 ft | 344 kts | 108° |
| 2026-05-06 11:59 | 45.55448 | 5.39381 | 13172 ft | 348 kts | 108° |
| 2026-05-06 12:00 | 45.54771 | 5.42723 | 13941 ft | 353 kts | 108° |
| 2026-05-06 12:00 | 45.54089 | 5.46098 | 14628 ft | 356 kts | 108° |
| 2026-05-06 12:00 | 45.53402 | 5.49498 | 15394 ft | 358 kts | 109° |
| 2026-05-06 12:00 | 45.52705 | 5.52912 | 16145 ft | 360 kts | 109° |
| 2026-05-06 12:01 | 45.52012 | 5.56301 | 16863 ft | 362 kts | 109° |
| 2026-05-06 12:01 | 45.51318 | 5.59763 | 17574 ft | 366 kts | 106° |
| 2026-05-06 12:01 | 45.50958 | 5.63373 | 18285 ft | 372 kts | 95° |
| 2026-05-06 12:01 | 45.51095 | 5.67086 | 18904 ft | 378 kts | 84° |
| 2026-05-06 12:02 | 45.51456 | 5.70806 | 19528 ft | 380 kts | 84° |
| 2026-05-06 12:02 | 45.51816 | 5.74547 | 20169 ft | 382 kts | 84° |
| 2026-05-06 12:02 | 45.52173 | 5.78324 | 20814 ft | 385 kts | 84° |
| 2026-05-06 12:02 | 45.52525 | 5.82119 | 21427 ft | 388 kts | 84° |
| 2026-05-06 12:03 | 45.52877 | 5.85947 | 22001 ft | 391 kts | 85° |
| 2026-05-06 12:03 | 45.53372 | 5.89806 | 22445 ft | 401 kts | 77° |
| 2026-05-06 12:03 | 45.54390 | 5.93538 | 22948 ft | 409 kts | 65° |
| 2026-05-06 12:03 | 45.55951 | 5.96962 | 23490 ft | 415 kts | 52° |
| 2026-05-06 12:04 | 45.57993 | 5.99898 | 23923 ft | 421 kts | 40° |
| 2026-05-06 12:04 | 45.60445 | 6.02279 | 24315 ft | 427 kts | 32° |
| 2026-05-06 12:04 | 45.62993 | 6.04527 | 24734 ft | 431 kts | 32° |
| 2026-05-06 12:04 | 45.65562 | 6.06799 | 25144 ft | 436 kts | 32° |
| 2026-05-06 12:05 | 45.68151 | 6.09095 | 25527 ft | 440 kts | 32° |
| 2026-05-06 12:05 | 45.70766 | 6.11421 | 25871 ft | 446 kts | 32° |
| 2026-05-06 12:05 | 45.73376 | 6.13744 | 26267 ft | 450 kts | 32° |
| 2026-05-06 12:05 | 45.76045 | 6.16122 | 26644 ft | 454 kts | 32° |
| 2026-05-06 12:06 | 45.78742 | 6.18528 | 26997 ft | 460 kts | 32° |
| 2026-05-06 12:06 | 45.81466 | 6.20958 | 27410 ft | 463 kts | 32° |
| 2026-05-06 12:06 | 45.84212 | 6.23411 | 27866 ft | 466 kts | 32° |
| 2026-05-06 12:06 | 45.86976 | 6.25882 | 28251 ft | 470 kts | 32° |
| 2026-05-06 12:07 | 45.89763 | 6.28378 | 28643 ft | 474 kts | 32° |
| 2026-05-06 12:07 | 45.92571 | 6.30897 | 29007 ft | 479 kts | 31° |
| 2026-05-06 12:07 | 45.95417 | 6.33452 | 29315 ft | 485 kts | 31° |
| 2026-05-06 12:07 | 45.98298 | 6.36038 | 29554 ft | 492 kts | 31° |
| 2026-05-06 12:08 | 46.01215 | 6.38657 | 29971 ft | 496 kts | 31° |
| 2026-05-06 12:08 | 46.04148 | 6.41298 | 30301 ft | 499 kts | 31° |
| 2026-05-06 12:08 | 46.07098 | 6.43956 | 30608 ft | 501 kts | 31° |
| 2026-05-06 12:08 | 46.10054 | 6.46625 | 30925 ft | 503 kts | 31° |
| 2026-05-06 12:09 | 46.13023 | 6.49315 | 31217 ft | 505 kts | 31° |
| 2026-05-06 12:09 | 46.16001 | 6.52018 | 31514 ft | 507 kts | 32° |
| 2026-05-06 12:09 | 46.18983 | 6.54729 | 31840 ft | 506 kts | 32° |
| 2026-05-06 12:09 | 46.21944 | 6.57415 | 31909 ft | 497 kts | 30° |
| 2026-05-06 12:10 | 46.24969 | 6.59661 | 31915 ft | 481 kts | 21° |
| 2026-05-06 12:10 | 46.28093 | 6.61199 | 31912 ft | 470 kts | 13° |
| 2026-05-06 12:10 | 46.34352 | 6.63767 | 31912 ft | 466 kts | 13° |
| 2026-05-06 12:11 | 46.40579 | 6.66339 | 31905 ft | 464 kts | 13° |
| 2026-05-06 12:11 | 46.46902 | 6.67407 | 31895 ft | 455 kts | 354° |
| 2026-05-06 12:12 | 46.53156 | 6.66414 | 31900 ft | 452 kts | 349° |
| 2026-05-06 12:12 | 46.59408 | 6.65303 | 31903 ft | 452 kts | 349° |
| 2026-05-06 12:13 | 46.65648 | 6.64201 | 31891 ft | 451 kts | 349° |
| 2026-05-06 12:13 | 46.71875 | 6.63105 | 31884 ft | 451 kts | 349° |
| 2026-05-06 12:14 | 46.78098 | 6.62003 | 31893 ft | 451 kts | 349° |
| 2026-05-06 12:14 | 46.84325 | 6.60896 | 31889 ft | 451 kts | 349° |
| 2026-05-06 12:15 | 46.90543 | 6.59782 | 31882 ft | 449 kts | 350° |
| 2026-05-06 12:15 | 46.96744 | 6.58679 | 31879 ft | 448 kts | 350° |
| 2026-05-06 12:16 | 47.02938 | 6.57575 | 31886 ft | 449 kts | 350° |
| 2026-05-06 12:16 | 47.09129 | 6.56458 | 31923 ft | 447 kts | 351° |
| 2026-05-06 12:17 | 47.15291 | 6.55348 | 31925 ft | 445 kts | 351° |
| 2026-05-06 12:17 | 47.21431 | 6.54242 | 31917 ft | 444 kts | 352° |
| 2026-05-06 12:18 | 47.27557 | 6.53132 | 31910 ft | 442 kts | 352° |
| 2026-05-06 12:18 | 47.33654 | 6.52027 | 31896 ft | 442 kts | 352° |
| 2026-05-06 12:19 | 47.39757 | 6.50917 | 31888 ft | 442 kts | 352° |
| 2026-05-06 12:19 | 47.45860 | 6.49799 | 31883 ft | 442 kts | 352° |
| 2026-05-06 12:20 | 47.51963 | 6.48692 | 31874 ft | 442 kts | 352° |
| 2026-05-06 12:20 | 47.58063 | 6.47565 | 31865 ft | 441 kts | 352° |
| 2026-05-06 12:21 | 47.64157 | 6.46447 | 31855 ft | 442 kts | 352° |
| 2026-05-06 12:21 | 47.70251 | 6.45329 | 31846 ft | 441 kts | 352° |
| 2026-05-06 12:22 | 47.76335 | 6.44206 | 31845 ft | 440 kts | 352° |
| 2026-05-06 12:22 | 47.82428 | 6.43080 | 31857 ft | 441 kts | 352° |
| 2026-05-06 12:23 | 47.88516 | 6.41958 | 31852 ft | 441 kts | 352° |
| 2026-05-06 12:23 | 47.94600 | 6.40832 | 31853 ft | 440 kts | 352° |
| 2026-05-06 12:24 | 48.00660 | 6.39701 | 31845 ft | 439 kts | 352° |
| 2026-05-06 12:24 | 48.06722 | 6.38567 | 31853 ft | 438 kts | 352° |
| 2026-05-06 12:25 | 48.11752 | 6.37625 | 31854 ft | 438 kts | 352° |
| 2026-05-06 12:25 | 48.17797 | 6.36489 | 31850 ft | 438 kts | 352° |
| 2026-05-06 12:26 | 48.23848 | 6.35363 | 31846 ft | 437 kts | 352° |
| 2026-05-06 12:26 | 48.29877 | 6.34234 | 31833 ft | 436 kts | 352° |
| 2026-05-06 12:27 | 48.35893 | 6.33092 | 31828 ft | 436 kts | 352° |
| 2026-05-06 12:27 | 48.41915 | 6.31948 | 31826 ft | 436 kts | 352° |
| 2026-05-06 12:28 | 48.47931 | 6.30820 | 31805 ft | 436 kts | 352° |
| 2026-05-06 12:28 | 48.53948 | 6.29680 | 31801 ft | 435 kts | 352° |
| 2026-05-06 12:29 | 48.59946 | 6.28520 | 31798 ft | 435 kts | 352° |
| 2026-05-06 12:29 | 48.65959 | 6.27350 | 31814 ft | 437 kts | 352° |
| 2026-05-06 12:30 | 48.71998 | 6.26214 | 31807 ft | 437 kts | 352° |
| 2026-05-06 12:30 | 48.78020 | 6.25077 | 31821 ft | 436 kts | 352° |
| 2026-05-06 12:31 | 48.84044 | 6.23925 | 31815 ft | 436 kts | 352° |
| 2026-05-06 12:31 | 48.90049 | 6.22764 | 31815 ft | 435 kts | 352° |
| 2026-05-06 12:32 | 48.96062 | 6.21600 | 31821 ft | 436 kts | 352° |
| 2026-05-06 12:32 | 49.02078 | 6.20434 | 31813 ft | 436 kts | 352° |
| 2026-05-06 12:33 | 49.08096 | 6.19270 | 31815 ft | 436 kts | 352° |
| 2026-05-06 12:33 | 49.14119 | 6.18094 | 31826 ft | 436 kts | 352° |
| 2026-05-06 12:34 | 49.20145 | 6.16907 | 31815 ft | 436 kts | 352° |
| 2026-05-06 12:34 | 49.26173 | 6.15733 | 31808 ft | 437 kts | 352° |
| 2026-05-06 12:35 | 49.32210 | 6.14560 | 31803 ft | 438 kts | 352° |
| 2026-05-06 12:35 | 49.38249 | 6.13374 | 31812 ft | 437 kts | 351° |
| 2026-05-06 12:36 | 49.44273 | 6.12176 | 31821 ft | 436 kts | 351° |
| 2026-05-06 12:36 | 49.50307 | 6.11641 | 31813 ft | 435 kts | 2° |
| 2026-05-06 12:37 | 49.56355 | 6.11991 | 31806 ft | 435 kts | 0° |
| 2026-05-06 12:37 | 49.62400 | 6.12128 | 31815 ft | 434 kts | 359° |
| 2026-05-06 12:38 | 49.68580 | 6.12287 | 31813 ft | 455 kts | 360° |
| 2026-05-06 12:38 | 49.74974 | 6.12521 | 31812 ft | 462 kts | 0° |
| 2026-05-06 12:39 | 49.81369 | 6.12801 | 31822 ft | 463 kts | 1° |
| 2026-05-06 12:39 | 49.87825 | 6.13051 | 31818 ft | 460 kts | 0° |
| 2026-05-06 12:40 | 49.94219 | 6.13109 | 31823 ft | 459 kts | 359° |
| 2026-05-06 12:40 | 50.00573 | 6.13082 | 31822 ft | 459 kts | 359° |
| 2026-05-06 12:41 | 50.06964 | 6.13078 | 31830 ft | 459 kts | 360° |
| 2026-05-06 12:41 | 50.10146 | 6.13095 | 31558 ft | 456 kts | 0° |
| 2026-05-06 12:41 | 50.13338 | 6.13119 | 30777 ft | 459 kts | 0° |
| 2026-05-06 12:42 | 50.16472 | 6.13143 | 30261 ft | 453 kts | 1° |
| 2026-05-06 12:42 | 50.19604 | 6.13166 | 29749 ft | 447 kts | 1° |
| 2026-05-06 12:42 | 50.22693 | 6.13190 | 29143 ft | 441 kts | 1° |
| 2026-05-06 12:42 | 50.25789 | 6.13215 | 28483 ft | 437 kts | 1° |
| 2026-05-06 12:43 | 50.28795 | 6.13652 | 27835 ft | 432 kts | 13° |
| 2026-05-06 12:43 | 50.31582 | 6.15129 | 27217 ft | 427 kts | 26° |
| 2026-05-06 12:43 | 50.34118 | 6.17502 | 26560 ft | 424 kts | 33° |
| 2026-05-06 12:43 | 50.36578 | 6.20024 | 25908 ft | 422 kts | 33° |
| 2026-05-06 12:44 | 50.39023 | 6.22545 | 25244 ft | 420 kts | 33° |
| 2026-05-06 12:44 | 50.41461 | 6.25061 | 24619 ft | 418 kts | 33° |
| 2026-05-06 12:44 | 50.43882 | 6.27558 | 24013 ft | 416 kts | 33° |
| 2026-05-06 12:44 | 50.46294 | 6.30051 | 23434 ft | 414 kts | 33° |
| 2026-05-06 12:45 | 50.48688 | 6.32533 | 22815 ft | 411 kts | 32° |
| 2026-05-06 12:45 | 50.51085 | 6.34948 | 22251 ft | 407 kts | 31° |
| 2026-05-06 12:45 | 50.55926 | 6.39411 | 21186 ft | 401 kts | 28° |
| 2026-05-06 12:46 | 50.58342 | 6.41566 | 20666 ft | 397 kts | 28° |
| 2026-05-06 12:46 | 50.60735 | 6.43712 | 20121 ft | 395 kts | 28° |
| 2026-05-06 12:46 | 50.63101 | 6.45862 | 19613 ft | 391 kts | 28° |
| 2026-05-06 12:46 | 50.65439 | 6.48013 | 19064 ft | 389 kts | 29° |
| 2026-05-06 12:47 | 50.67763 | 6.50169 | 18544 ft | 386 kts | 29° |
| 2026-05-06 12:47 | 50.70073 | 6.52319 | 18007 ft | 383 kts | 28° |
| 2026-05-06 12:47 | 50.72354 | 6.54441 | 17459 ft | 378 kts | 29° |
| 2026-05-06 12:47 | 50.74609 | 6.56536 | 16821 ft | 376 kts | 29° |
| 2026-05-06 12:48 | 50.76867 | 6.58632 | 16079 ft | 378 kts | 29° |
| 2026-05-06 12:48 | 50.79135 | 6.60737 | 15464 ft | 377 kts | 29° |
| 2026-05-06 12:48 | 50.81402 | 6.62785 | 14872 ft | 373 kts | 24° |
| 2026-05-06 12:48 | 50.83846 | 6.63995 | 14311 ft | 366 kts | 7° |
| 2026-05-06 12:49 | 50.86366 | 6.64539 | 13731 ft | 364 kts | 5° |
| 2026-05-06 12:49 | 50.88870 | 6.65071 | 13114 ft | 362 kts | 5° |
| 2026-05-06 12:49 | 50.91357 | 6.65599 | 12519 ft | 358 kts | 5° |
| 2026-05-06 12:49 | 50.93803 | 6.66121 | 11681 ft | 352 kts | 5° |
| 2026-05-06 12:50 | 50.96212 | 6.66638 | 10828 ft | 348 kts | 6° |
| 2026-05-06 12:50 | 50.98600 | 6.67154 | 9993 ft | 344 kts | 6° |
| 2026-05-06 12:50 | 51.00952 | 6.67661 | 9133 ft | 339 kts | 6° |
| 2026-05-06 12:50 | 51.03281 | 6.67894 | 8278 ft | 331 kts | 356° |
| 2026-05-06 12:51 | 51.05520 | 6.67437 | 7748 ft | 315 kts | 339° |
| 2026-05-06 12:51 | 51.07301 | 6.65754 | 7628 ft | 287 kts | 312° |
| 2026-05-06 12:51 | 51.08350 | 6.63227 | 7471 ft | 266 kts | 293° |
| 2026-05-06 12:51 | 51.08958 | 6.60555 | 7351 ft | 249 kts | 289° |
| 2026-05-06 12:52 | 51.09453 | 6.58004 | 7217 ft | 234 kts | 287° |
| 2026-05-06 12:52 | 51.09916 | 6.55596 | 7123 ft | 222 kts | 288° |
| 2026-05-06 12:52 | 51.10372 | 6.53205 | 6709 ft | 231 kts | 287° |
| 2026-05-06 12:52 | 51.10854 | 6.50712 | 6123 ft | 240 kts | 288° |
| 2026-05-06 12:53 | 51.11500 | 6.48292 | 5495 ft | 244 kts | 310° |
| 2026-05-06 12:53 | 51.12885 | 6.46743 | 4852 ft | 250 kts | 343° |
| 2026-05-06 12:53 | 51.14616 | 6.46774 | 4317 ft | 253 kts | 19° |
| 2026-05-06 12:53 | 51.16014 | 6.48374 | 4030 ft | 250 kts | 53° |
| 2026-05-06 12:54 | 51.16764 | 6.50824 | 3739 ft | 244 kts | 65° |
| 2026-05-06 12:54 | 51.17454 | 6.53261 | 3440 ft | 236 kts | 59° |
| 2026-05-06 12:54 | 51.18405 | 6.55288 | 3248 ft | 221 kts | 49° |
| 2026-05-06 12:54 | 51.19326 | 6.57170 | 3018 ft | 212 kts | 50° |
| 2026-05-06 12:55 | 51.20215 | 6.59016 | 2770 ft | 207 kts | 50° |
| 2026-05-06 12:55 | 51.21067 | 6.60793 | 2471 ft | 195 kts | 51° |
| 2026-05-06 12:55 | 51.21863 | 6.62456 | 2209 ft | 183 kts | 50° |
| 2026-05-06 12:55 | 51.22616 | 6.64025 | 1955 ft | 173 kts | 50° |
| 2026-05-06 12:56 | 51.23323 | 6.65502 | 1729 ft | 162 kts | 50° |
| 2026-05-06 12:56 | 51.23963 | 6.66838 | 1510 ft | 140 kts | 49° |
| 2026-05-06 12:56 | 51.24524 | 6.68012 | 1352 ft | 131 kts | 49° |
| 2026-05-06 12:56 | 51.25069 | 6.69147 | 1198 ft | 126 kts | 49° |
| 2026-05-06 12:57 | 51.25606 | 6.70267 | 1015 ft | 127 kts | 49° |
| 2026-05-06 12:57 | 51.26140 | 6.71383 | 823 ft | 125 kts | 49° |
| 2026-05-06 12:57 | 51.26663 | 6.72479 | 658 ft | 123 kts | 47° |
| 2026-05-06 12:57 | 51.27186 | 6.73575 | 488 ft | 124 kts | 49° |
| 2026-05-06 12:58 | 51.27710 | 6.74674 | 287 ft | 123 kts | 48° |
| 2026-05-06 12:58 | 51.28236 | 6.75777 | 150 ft | 122 kts | 49° |
| 2026-05-06 12:58 | 51.28689 | 6.76721 | 127 ft | 78 kts | 53° |
| 2026-05-06 12:58 | 51.28925 | 6.77223 | 129 ft | 47 kts | 53° |
| 2026-05-06 12:59 | 51.29033 | 6.77469 | 129 ft | 15 kts | 75° |
| 2026-05-06 12:59 | 51.28976 | 6.77605 | 127 ft | 10 kts | 143° |
| 2026-05-06 12:59 | 51.28947 | 6.77641 | 129 ft | 2 kts | 142° |
| 2026-05-06 12:59 | 51.28925 | 6.77662 | 127 ft | 5 kts | 161° |
| 2026-05-06 13:00 | 51.28893 | 6.77628 | 126 ft | 8 kts | 232° |
| 2026-05-06 13:00 | 51.28848 | 6.77533 | 129 ft | 13 kts | 234° |
| 2026-05-06 13:00 | 51.28782 | 6.77393 | 128 ft | 18 kts | 232° |
| 2026-05-06 13:00 | 51.28698 | 6.77220 | 128 ft | 22 kts | 232° |
| 2026-05-06 13:01 | 51.28602 | 6.77013 | 128 ft | 24 kts | 233° |
| 2026-05-06 13:01 | 51.28510 | 6.76821 | 127 ft | 20 kts | 232° |
| 2026-05-06 13:01 | 51.28438 | 6.76671 | 124 ft | 16 kts | 233° |
| 2026-05-06 13:01 | 51.28397 | 6.76584 | 122 ft | 7 kts | 232° |
| 2026-05-06 13:02 | 51.28362 | 6.76511 | 121 ft | 10 kts | 234° |
| 2026-05-06 13:02 | 51.28300 | 6.76501 | 125 ft | 12 kts | 156° |
| 2026-05-06 13:02 | 51.28247 | 6.76456 | 127 ft | 0 kts | 233° |
| 2026-05-06 13:02 | 51.28237 | 6.76444 | 131 ft | 3 kts | 204° |
| 2026-05-06 13:03 | 51.28213 | 6.76440 | 127 ft | 3 kts | 186° |
| 2026-05-06 13:03 | 51.28192 | 6.76436 | 127 ft | 4 kts | 186° |
| 2026-05-06 13:03 | 51.28162 | 6.76450 | 127 ft | 6 kts | 146° |
| 2026-05-06 13:03 | 51.28152 | 6.76508 | 124 ft | 4 kts | 95° |
| 2026-05-06 13:04 | 51.28150 | 6.76542 | 128 ft | 1 kts | 97° |
| 2026-05-06 13:04 | 51.28150 | 6.76547 | 128 ft | 0 kts | 97° |